Time;durP1;ratioP1;P1;durP2;ratioP2;P2;SDS_P1;SDS_P2;PMS_P1;PMS_P2;Temp;Humidity;BMP_temperature;BMP_pressure;BME280_temperature;BME280_humidity;BME280_pressure;Samples;Min_cycle;Max_cycle;Signal;HPM_P1;HPM_P2
2023/08/29 00:01:30;;;;;;;7.10;4.78;;;;;;;;;;5031517;28;20060;-75
2023/08/29 00:03:58;;;;;;;6.10;4.55;;;;;;;;;;5016442;28;20485;-75
2023/08/29 00:06:24;;;;;;;6.90;5.38;;;;;;;;;;5015298;28;20143;-75
2023/08/29 00:08:50;;;;;;;5.53;5.00;;;;;;;;;;5015061;28;20509;-75
2023/08/29 00:11:16;;;;;;;6.20;4.38;;;;;;;;;;4999930;28;20048;-75
2023/08/29 00:13:43;;;;;;;6.18;4.65;;;;;;;;;;5031998;28;20412;-75
2023/08/29 00:16:15;;;;;;;5.30;4.80;;;;;;;;;;5015202;28;20045;-75
2023/08/29 00:18:42;;;;;;;6.35;4.80;;;;;;;;;;5001135;28;20041;-75
2023/08/29 00:21:08;;;;;;;4.65;4.25;;;;;;;;;;5035820;28;20227;-76
2023/08/29 00:23:34;;;;;;;9.75;4.80;;;;;;;;;;5032597;28;20349;-76
2023/08/29 00:26:00;;;;;;;6.05;4.40;;;;;;;;;;5032478;28;20079;-76
2023/08/29 00:28:26;;;;;;;6.78;4.75;;;;;;;;;;5012302;28;22778;-76
2023/08/29 00:30:54;;;;;;;7.97;5.03;;;;;;;;;;5031116;28;20397;-75
2023/08/29 00:33:20;;;;;;;5.60;4.47;;;;;;;;;;5031732;28;20045;-75
2023/08/29 00:35:47;;;;;;;6.10;4.72;;;;;;;;;;5008831;28;20191;-75
2023/08/29 00:38:14;;;;;;;5.32;4.80;;;;;;;;;;5010582;28;20040;-75
2023/08/29 00:40:40;;;;;;;6.82;4.35;;;;;;;;;;5011947;28;20040;-75
2023/08/29 00:43:06;;;;;;;6.85;4.05;;;;;;;;;;4994512;28;20106;-75
2023/08/29 00:45:33;;;;;;;12.25;4.40;;;;;;;;;;5011070;28;20051;-76
2023/08/29 00:48:00;;;;;;;7.07;4.40;;;;;;;;;;5009981;28;20052;-76
2023/08/29 00:50:26;;;;;;;7.22;4.40;;;;;;;;;;5007448;28;20048;-76
2023/08/29 00:52:54;;;;;;;4.35;3.95;;;;;;;;;;5010077;28;20966;-76
2023/08/29 00:55:21;;;;;;;5.68;3.88;;;;;;;;;;5012290;28;20048;-76
2023/08/29 00:57:48;;;;;;;8.68;4.13;;;;;;;;;;5009614;28;20052;-76
2023/08/29 01:00:14;;;;;;;7.60;4.43;;;;;;;;;;5009403;28;20044;-76
2023/08/29 01:02:41;;;;;;;10.68;4.28;;;;;;;;;;5027502;28;21572;-76
2023/08/29 01:05:07;;;;;;;6.07;4.43;;;;;;;;;;4993290;28;20048;-76
2023/08/29 01:07:33;;;;;;;7.55;4.38;;;;;;;;;;5010350;28;20084;-76
2023/08/29 01:09:59;;;;;;;6.75;4.30;;;;;;;;;;5012149;28;20059;-76
2023/08/29 01:12:33;;;;;;;4.43;4.03;;;;;;;;;;4998269;28;20052;-76
2023/08/29 01:15:03;;;;;;;7.35;4.60;;;;;;;;;;5029785;28;20175;-76
2023/08/29 01:17:33;;;;;;;7.13;4.68;;;;;;;;;;5013599;28;20045;-76
2023/08/29 01:19:59;;;;;;;6.47;4.55;;;;;;;;;;5012182;28;20040;-76
2023/08/29 01:22:42;;;;;;;4.90;4.25;;;;;;;;;;5010256;28;20064;-76
2023/08/29 01:25:09;;;;;;;8.80;4.95;;;;;;;;;;5031051;28;20071;-76
2023/08/29 01:27:35;;;;;;;7.20;4.93;;;;;;;;;;5010523;28;20053;-76
2023/08/29 01:30:03;;;;;;;5.07;4.55;;;;;;;;;;5013177;28;20651;-76
2023/08/29 01:32:30;;;;;;;6.78;5.03;;;;;;;;;;5028874;28;20037;-76
2023/08/29 01:34:57;;;;;;;4.90;4.40;;;;;;;;;;5031286;28;20041;-76
2023/08/29 01:37:23;;;;;;;6.53;3.88;;;;;;;;;;5024784;28;20084;-76
2023/08/29 01:39:49;;;;;;;4.40;3.88;;;;;;;;;;5008373;28;20230;-76
2023/08/29 01:42:15;;;;;;;4.55;3.90;;;;;;;;;;4997838;28;20427;-76
2023/08/29 01:44:41;;;;;;;6.82;4.10;;;;;;;;;;4995253;28;20048;-76
2023/08/29 01:47:07;;;;;;;4.15;3.72;;;;;;;;;;5011192;28;20134;-76
2023/08/29 01:49:34;;;;;;;4.82;3.67;;;;;;;;;;5029103;28;20096;-76
2023/08/29 01:52:00;;;;;;;4.78;3.75;;;;;;;;;;5026335;28;20127;-76
2023/08/29 01:54:27;;;;;;;3.90;3.55;;;;;;;;;;5009591;28;20131;-76
2023/08/29 01:56:55;;;;;;;5.93;3.55;;;;;;;;;;5009794;28;21613;-76
2023/08/29 01:59:22;;;;;;;6.07;4.30;;;;;;;;;;5011591;28;20049;-76
2023/08/29 02:01:48;;;;;;;7.68;4.57;;;;;;;;;;5025753;28;20055;-76
2023/08/29 02:04:14;;;;;;;7.18;4.57;;;;;;;;;;5009249;28;20041;-76
2023/08/29 02:06:40;;;;;;;5.95;4.50;;;;;;;;;;5028405;28;20047;-76
2023/08/29 02:09:06;;;;;;;6.68;4.57;;;;;;;;;;5027863;28;20154;-76
2023/08/29 02:11:32;;;;;;;7.00;4.10;;;;;;;;;;5027524;28;20051;-76
2023/08/29 02:13:59;;;;;;;5.20;4.10;;;;;;;;;;5013558;28;20641;-76
2023/08/29 02:16:25;;;;;;;7.47;4.47;;;;;;;;;;5025851;28;20424;-75
2023/08/29 02:18:54;;;;;;;8.77;5.05;;;;;;;;;;5028492;28;20036;-76
2023/08/29 02:21:20;;;;;;;5.57;4.82;;;;;;;;;;4999232;28;20064;-76
2023/08/29 02:23:46;;;;;;;8.05;4.18;;;;;;;;;;5014012;28;20134;-76
2023/08/29 02:26:12;;;;;;;4.07;3.67;;;;;;;;;;5029996;28;20040;-76
2023/08/29 02:28:39;;;;;;;6.22;4.57;;;;;;;;;;5012769;28;20749;-76
2023/08/29 02:31:06;;;;;;;5.05;3.70;;;;;;;;;;5034092;28;20132;-76
2023/08/29 02:33:33;;;;;;;5.28;4.20;;;;;;;;;;5000216;28;20128;-76
2023/08/29 02:36:00;;;;;;;4.40;3.97;;;;;;;;;;5016892;28;20409;-76
2023/08/29 02:38:26;;;;;;;5.50;4.38;;;;;;;;;;5013990;28;20080;-76
2023/08/29 02:40:52;;;;;;;4.82;4.15;;;;;;;;;;5029101;28;20065;-76
2023/08/29 02:43:18;;;;;;;4.63;4.10;;;;;;;;;;5014179;28;20435;-76
2023/08/29 02:45:44;;;;;;;5.80;4.78;;;;;;;;;;5030326;28;20071;-76
2023/08/29 02:48:10;;;;;;;5.35;4.65;;;;;;;;;;5028245;28;22148;-76
2023/08/29 02:50:37;;;;;;;6.70;5.13;;;;;;;;;;5010701;28;20053;-76
2023/08/29 02:53:03;;;;;;;6.05;4.63;;;;;;;;;;5013335;28;20647;-76
2023/08/29 02:55:29;;;;;;;8.25;4.60;;;;;;;;;;5011566;28;20075;-76
2023/08/29 02:57:56;;;;;;;4.95;4.55;;;;;;;;;;5011794;28;20044;-76
2023/08/29 03:00:22;;;;;;;7.93;5.07;;;;;;;;;;5014162;28;20718;-76
2023/08/29 03:02:48;;;;;;;6.45;4.75;;;;;;;;;;5011255;28;20052;-76
2023/08/29 03:05:14;;;;;;;7.97;5.40;;;;;;;;;;5030195;28;20040;-76
2023/08/29 03:07:40;;;;;;;7.38;4.40;;;;;;;;;;5013691;28;20059;-76
2023/08/29 03:10:06;;;;;;;5.45;4.82;;;;;;;;;;4994208;28;20380;-76
2023/08/29 03:12:32;;;;;;;5.45;4.30;;;;;;;;;;4999089;28;20155;-76
2023/08/29 03:14:58;;;;;;;4.88;4.38;;;;;;;;;;5013027;28;20053;-76
2023/08/29 03:17:25;;;;;;;4.30;3.28;;;;;;;;;;5013843;28;20052;-76
2023/08/29 03:19:51;;;;;;;3.08;2.83;;;;;;;;;;5011162;28;21552;-76
2023/08/29 03:22:17;;;;;;;3.47;2.22;;;;;;;;;;5029502;28;20572;-76
2023/08/29 03:24:46;;;;;;;3.60;3.30;;;;;;;;;;5008616;28;20480;-76
2023/08/29 03:27:13;;;;;;;3.95;3.55;;;;;;;;;;5011614;28;20147;-76
2023/08/29 03:29:40;;;;;;;4.97;3.90;;;;;;;;;;5013573;28;20048;-76
2023/08/29 03:32:06;;;;;;;7.55;4.55;;;;;;;;;;5011497;28;20041;-76
2023/08/29 03:34:33;;;;;;;5.88;5.03;;;;;;;;;;5029835;28;20645;-76
2023/08/29 03:36:59;;;;;;;5.40;4.90;;;;;;;;;;5010774;28;20055;-76
2023/08/29 03:39:25;;;;;;;8.73;4.82;;;;;;;;;;5010329;28;20041;-76
2023/08/29 03:41:51;;;;;;;5.25;4.38;;;;;;;;;;5013798;28;20052;-76
2023/08/29 03:44:17;;;;;;;5.38;4.80;;;;;;;;;;5030558;28;20070;-76
2023/08/29 03:46:44;;;;;;;4.97;4.50;;;;;;;;;;5011975;28;21710;-76
2023/08/29 03:49:10;;;;;;;8.45;4.35;;;;;;;;;;5029892;28;20041;-76
2023/08/29 03:51:36;;;;;;;6.72;5.05;;;;;;;;;;5026278;28;20452;-76
2023/08/29 03:54:02;;;;;;;7.35;4.40;;;;;;;;;;5009824;28;20079;-76
2023/08/29 03:56:28;;;;;;;5.40;4.70;;;;;;;;;;5011999;28;20114;-76
2023/08/29 03:58:54;;;;;;;7.90;5.57;;;;;;;;;;5013453;28;20079;-76
2023/08/29 04:01:20;;;;;;;5.38;4.88;;;;;;;;;;5015877;28;20040;-76
2023/08/29 04:03:47;;;;;;;5.55;5.05;;;;;;;;;;4996775;28;20045;-75
2023/08/29 04:06:14;;;;;;;10.25;5.38;;;;;;;;;;5031246;28;20053;-76
2023/08/29 04:08:40;;;;;;;5.93;5.10;;;;;;;;;;5027130;28;20044;-76
2023/08/29 04:11:06;;;;;;;6.00;5.40;;;;;;;;;;5028978;28;20045;-76
2023/08/29 04:13:33;;;;;;;10.07;5.60;;;;;;;;;;5016006;28;20055;-76
2023/08/29 04:16:03;;;;;;;6.25;4.68;;;;;;;;;;5034743;28;20063;-76
2023/08/29 04:18:33;;;;;;;8.98;5.15;;;;;;;;;;5012568;28;20103;-76
2023/08/29 04:20:59;;;;;;;8.80;5.70;;;;;;;;;;5016482;28;20738;-76
2023/08/29 04:23:25;;;;;;;6.35;5.70;;;;;;;;;;5024747;28;20385;-76
2023/08/29 04:25:59;;;;;;;7.00;5.60;;;;;;;;;;5016027;28;20045;-75
2023/08/29 04:28:25;;;;;;;7.35;4.85;;;;;;;;;;5028435;28;20121;-76
2023/08/29 04:30:51;;;;;;;5.63;5.00;;;;;;;;;;5015144;28;20085;-76
2023/08/29 04:33:17;;;;;;;5.70;4.40;;;;;;;;;;5027601;28;20037;-76
2023/08/29 04:35:44;;;;;;;5.00;4.35;;;;;;;;;;5030400;28;20052;-76
2023/08/29 04:38:10;;;;;;;9.18;5.10;;;;;;;;;;5013333;28;20056;-76
2023/08/29 04:40:36;;;;;;;5.55;4.95;;;;;;;;;;5031027;28;20610;-76
2023/08/29 04:43:02;;;;;;;7.10;5.28;;;;;;;;;;5032325;28;20036;-75
2023/08/29 04:45:28;;;;;;;6.40;5.80;;;;;;;;;;5015617;28;22648;-77
2023/08/29 04:47:54;;;;;;;5.47;4.93;;;;;;;;;;5011729;28;20115;-80
2023/08/29 04:50:30;;;;;;;5.72;4.90;;;;;;;;;;5012562;28;20040;-78
2023/08/29 04:52:56;;;;;;;6.80;5.55;;;;;;;;;;5010142;28;20049;-76
2023/08/29 04:55:22;;;;;;;7.70;5.80;;;;;;;;;;5010360;28;20044;-73
2023/08/29 04:57:48;;;;;;;6.57;5.63;;;;;;;;;;5027685;28;20536;-73
2023/08/29 05:00:15;;;;;;;13.82;6.47;;;;;;;;;;5012574;28;21967;-73
2023/08/29 05:02:41;;;;;;;10.45;5.75;;;;;;;;;;5010819;28;20036;-73
2023/08/29 05:05:07;;;;;;;8.48;7.10;;;;;;;;;;5031918;28;20164;-73
2023/08/29 05:07:33;;;;;;;8.88;6.60;;;;;;;;;;5013829;28;20049;-73
2023/08/29 05:09:59;;;;;;;11.40;5.53;;;;;;;;;;5034800;28;20036;-73
2023/08/29 05:12:25;;;;;;;5.40;4.90;;;;;;;;;;5033205;28;20124;-73
2023/08/29 05:14:54;;;;;;;6.30;5.18;;;;;;;;;;5017371;28;21730;-73
2023/08/29 05:17:20;;;;;;;7.78;4.65;;;;;;;;;;5016819;28;20507;-73
2023/08/29 05:19:46;;;;;;;6.53;4.10;;;;;;;;;;5016840;28;20115;-73
2023/08/29 05:22:12;;;;;;;7.18;5.00;;;;;;;;;;5012626;28;20060;-73
2023/08/29 05:24:38;;;;;;;7.28;4.55;;;;;;;;;;5012989;28;20363;-73
2023/08/29 05:27:05;;;;;;;6.15;5.40;;;;;;;;;;5013066;28;20160;-73
2023/08/29 05:29:31;;;;;;;8.70;5.40;;;;;;;;;;5012999;28;20626;-73
2023/08/29 05:31:57;;;;;;;9.77;5.78;;;;;;;;;;5014849;28;20068;-73
2023/08/29 05:34:23;;;;;;;9.70;5.82;;;;;;;;;;5011652;28;20080;-73
2023/08/29 05:36:51;;;;;;;7.20;5.82;;;;;;;;;;5012287;28;20071;-73
2023/08/29 05:39:17;;;;;;;9.60;5.70;;;;;;;;;;5012585;28;20055;-73
2023/08/29 05:41:43;;;;;;;8.07;5.82;;;;;;;;;;4997152;28;20486;-73
2023/08/29 05:44:09;;;;;;;9.23;6.88;;;;;;;;;;5012638;28;20500;-73
2023/08/29 05:46:35;;;;;;;8.02;6.57;;;;;;;;;;5009624;28;20044;-73
2023/08/29 05:49:01;;;;;;;7.72;6.00;;;;;;;;;;5006467;28;20041;-73
2023/08/29 05:51:27;;;;;;;7.60;6.18;;;;;;;;;;5009395;28;20046;-73
2023/08/29 05:53:56;;;;;;;7.40;6.22;;;;;;;;;;4998783;28;20048;-73
2023/08/29 05:56:22;;;;;;;8.35;6.55;;;;;;;;;;5016796;28;20080;-73
2023/08/29 05:58:48;;;;;;;9.48;6.57;;;;;;;;;;5006862;28;20048;-73
2023/08/29 06:01:14;;;;;;;7.90;6.20;;;;;;;;;;5014270;28;20044;-73
2023/08/29 06:03:41;;;;;;;7.65;6.05;;;;;;;;;;5000000;28;20056;-73
2023/08/29 06:06:07;;;;;;;7.80;6.07;;;;;;;;;;5015415;28;20056;-72
2023/08/29 06:08:33;;;;;;;8.93;5.78;;;;;;;;;;5014066;28;20131;-73
2023/08/29 06:11:06;;;;;;;6.60;5.82;;;;;;;;;;5014150;28;20053;-73
2023/08/29 06:13:32;;;;;;;6.05;5.43;;;;;;;;;;5017074;28;20048;-72
2023/08/29 06:15:58;;;;;;;8.32;5.95;;;;;;;;;;5013123;28;20869;-72
2023/08/29 06:18:24;;;;;;;6.70;5.45;;;;;;;;;;5008343;28;20041;-72
2023/08/29 06:20:50;;;;;;;8.63;6.10;;;;;;;;;;5006440;28;20057;-73
2023/08/29 06:23:16;;;;;;;5.88;5.20;;;;;;;;;;5011596;28;20168;-73
2023/08/29 06:25:42;;;;;;;13.68;5.93;;;;;;;;;;4995944;28;20045;-73
2023/08/29 06:28:09;;;;;;;10.05;5.72;;;;;;;;;;5012454;28;20880;-72
2023/08/29 06:30:35;;;;;;;11.10;6.00;;;;;;;;;;5017281;28;20041;-73
2023/08/29 06:33:01;;;;;;;9.82;6.28;;;;;;;;;;5018706;28;20044;-73
2023/08/29 06:35:28;;;;;;;8.90;5.35;;;;;;;;;;5018256;28;20050;-73
2023/08/29 06:37:55;;;;;;;10.13;5.18;;;;;;;;;;5010946;28;20736;-73
2023/08/29 06:40:21;;;;;;;22.75;5.82;;;;;;;;;;5016623;28;20576;-73
2023/08/29 06:42:47;;;;;;;6.55;5.15;;;;;;;;;;5020114;28;20041;-72
2023/08/29 06:45:13;;;;;;;33.15;7.22;;;;;;;;;;5020796;28;20488;-73
2023/08/29 06:47:39;;;;;;;19.63;5.43;;;;;;;;;;5021804;28;20037;-73
2023/08/29 06:50:06;;;;;;;6.93;4.78;;;;;;;;;;5010781;28;20044;-73
2023/08/29 06:52:32;;;;;;;28.83;7.35;;;;;;;;;;5015676;28;20060;-73
2023/08/29 06:54:58;;;;;;;5.28;4.38;;;;;;;;;;5016155;28;20064;-73
2023/08/29 06:57:24;;;;;;;64.35;10.20;;;;;;;;;;5019696;28;20045;-73
2023/08/29 06:59:50;;;;;;;32.25;7.03;;;;;;;;;;5018041;28;20045;-73
2023/08/29 07:02:16;;;;;;;122.22;11.38;;;;;;;;;;4995926;28;20110;-73
2023/08/29 07:04:42;;;;;;;7.43;4.28;;;;;;;;;;5018211;28;20065;-73
2023/08/29 07:07:08;;;;;;;6.50;3.83;;;;;;;;;;5009789;28;20160;-73
2023/08/29 07:09:35;;;;;;;5.63;4.10;;;;;;;;;;5016152;28;20111;-73
2023/08/29 07:12:01;;;;;;;59.03;8.15;;;;;;;;;;5017727;28;20045;-73
2023/08/29 07:14:27;;;;;;;10.65;4.00;;;;;;;;;;5015621;28;20073;-73
2023/08/29 07:16:53;;;;;;;6.22;3.70;;;;;;;;;;5000395;28;20469;-73
2023/08/29 07:19:20;;;;;;;13.60;4.35;;;;;;;;;;5016493;28;20606;-83
2023/08/29 07:21:46;;;;;;;3.47;3.22;;;;;;;;;;5032098;28;20475;-84
2023/08/29 07:24:12;;;;;;;3.40;3.10;;;;;;;;;;5034227;28;20052;-73
2023/08/29 07:26:38;;;;;;;3.65;3.05;;;;;;;;;;5035026;28;20053;-73
2023/08/29 07:29:04;;;;;;;3.70;3.00;;;;;;;;;;5028431;28;20451;-72
2023/08/29 07:31:31;;;;;;;3.88;2.92;;;;;;;;;;5034477;28;20037;-73
2023/08/29 07:33:57;;;;;;;3.15;2.60;;;;;;;;;;5015821;28;20055;-72
2023/08/29 07:36:23;;;;;;;5.95;2.53;;;;;;;;;;5018222;28;20049;-72
2023/08/29 07:38:49;;;;;;;5.43;3.33;;;;;;;;;;5036009;28;20607;-72
2023/08/29 07:41:15;;;;;;;3.03;1.88;;;;;;;;;;5016548;28;20052;-73
2023/08/29 07:43:41;;;;;;;3.78;2.30;;;;;;;;;;5020745;28;20037;-73
2023/08/29 07:46:08;;;;;;;3.20;2.15;;;;;;;;;;5003319;28;20040;-73
2023/08/29 07:48:35;;;;;;;7.93;2.45;;;;;;;;;;5014342;28;20048;-75
2023/08/29 07:51:01;;;;;;;1.90;1.38;;;;;;;;;;4999280;28;20051;-75
2023/08/29 07:53:27;;;;;;;3.78;1.88;;;;;;;;;;5018483;28;20750;-82
2023/08/29 07:55:53;;;;;;;5.53;1.13;;;;;;;;;;5021175;28;20063;-72
2023/08/29 07:58:19;;;;;;;7.57;1.67;;;;;;;;;;5016863;28;20067;-82
2023/08/29 08:00:45;;;;;;;3.03;1.65;;;;;;;;;;5012549;28;20037;-73
2023/08/29 08:03:11;;;;;;;2.30;1.40;;;;;;;;;;5010224;28;21249;-74
2023/08/29 08:05:41;;;;;;;1.88;1.10;;;;;;;;;;5030282;28;20956;-71
2023/08/29 08:08:07;;;;;;;4.32;1.77;;;;;;;;;;5018572;28;20087;-73
2023/08/29 08:10:33;;;;;;;9.40;2.33;;;;;;;;;;5021070;28;20044;-73
2023/08/29 08:12:59;;;;;;;2.50;1.30;;;;;;;;;;5036457;28;20490;-73
2023/08/29 08:15:25;;;;;;;5.53;1.48;;;;;;;;;;5016076;28;20099;-73
2023/08/29 08:17:51;;;;;;;3.28;1.48;;;;;;;;;;5035144;28;20152;-73
2023/08/29 08:20:17;;;;;;;1.75;1.58;;;;;;;;;;5014721;28;20051;-73
2023/08/29 08:22:44;;;;;;;2.97;1.70;;;;;;;;;;5035417;28;20049;-72
2023/08/29 08:25:10;;;;;;;4.50;1.20;;;;;;;;;;5016477;28;20507;-73
2023/08/29 08:27:36;;;;;;;1.88;1.50;;;;;;;;;;5018834;28;20040;-73
2023/08/29 08:30:07;;;;;;;2.30;1.77;;;;;;;;;;5015535;28;20036;-73
2023/08/29 08:32:33;;;;;;;1.92;1.40;;;;;;;;;;5012955;28;20072;-73
2023/08/29 08:35:00;;;;;;;2.55;1.58;;;;;;;;;;5032472;28;20044;-73
2023/08/29 08:37:26;;;;;;;2.53;1.42;;;;;;;;;;5015120;28;20571;-73
2023/08/29 08:39:52;;;;;;;1.77;1.67;;;;;;;;;;5032346;28;20036;-73
2023/08/29 08:42:19;;;;;;;5.78;1.67;;;;;;;;;;5019585;28;20056;-74
2023/08/29 08:44:45;;;;;;;1.38;1.27;;;;;;;;;;5008505;28;20044;-74
2023/08/29 08:47:12;;;;;;;4.00;1.65;;;;;;;;;;5010501;28;20191;-78
2023/08/29 08:49:39;;;;;;;1.77;1.40;;;;;;;;;;5011598;28;20496;-74
2023/08/29 08:52:05;;;;;;;13.75;2.60;;;;;;;;;;5010483;28;21690;-74
2023/08/29 08:54:31;;;;;;;2.28;1.80;;;;;;;;;;5009040;28;20044;-74
2023/08/29 08:56:58;;;;;;;2.92;1.67;;;;;;;;;;5015300;28;20572;-74
2023/08/29 08:59:27;;;;;;;2.13;1.65;;;;;;;;;;5020115;28;20075;-74
2023/08/29 09:01:56;;;;;;;2.35;2.13;;;;;;;;;;5035375;28;20460;-74
2023/08/29 09:04:23;;;;;;;6.57;2.38;;;;;;;;;;5033308;28;20211;-74
2023/08/29 09:06:49;;;;;;;1.58;1.48;;;;;;;;;;5016583;28;20052;-74
2023/08/29 09:09:19;;;;;;;23.02;2.97;;;;;;;;;;5017643;28;20146;-74
2023/08/29 09:11:56;;;;;;;2.35;1.60;;;;;;;;;;5019288;28;20165;-74
2023/08/29 09:14:22;;;;;;;1.15;1.00;;;;;;;;;;5002675;28;20060;-74
2023/08/29 09:16:58;;;;;;;4.20;1.73;;;;;;;;;;5036615;28;20057;-75
2023/08/29 09:19:24;;;;;;;1.92;1.10;;;;;;;;;;5035873;28;20056;-74
2023/08/29 09:21:51;;;;;;;7.43;1.15;;;;;;;;;;5037378;28;20224;-74
2023/08/29 09:24:31;;;;;;;5.45;1.02;;;;;;;;;;5014980;28;20099;-74
2023/08/29 09:26:57;;;;;;;0.73;0.50;;;;;;;;;;5035884;28;20032;-74
2023/08/29 09:29:24;;;;;;;1.95;0.90;;;;;;;;;;5011962;28;20152;-74
2023/08/29 09:31:50;;;;;;;2.20;1.00;;;;;;;;;;5014303;28;20153;-74
2023/08/29 09:34:27;;;;;;;2.92;0.90;;;;;;;;;;5016802;28;20036;-74
2023/08/29 09:36:53;;;;;;;3.92;1.35;;;;;;;;;;5016809;28;20619;-74
2023/08/29 09:39:20;;;;;;;8.57;1.65;;;;;;;;;;5018528;28;20055;-74
2023/08/29 09:42:01;;;;;;;3.78;1.00;;;;;;;;;;5019064;28;20052;-74
2023/08/29 09:44:28;;;;;;;5.38;1.15;;;;;;;;;;5029277;28;20584;-74
2023/08/29 09:46:54;;;;;;;2.72;1.10;;;;;;;;;;5020951;28;20063;-74
2023/08/29 09:49:20;;;;;;;1.13;1.00;;;;;;;;;;5037635;28;20650;-74
2023/08/29 09:51:48;;;;;;;3.47;1.10;;;;;;;;;;5020070;28;20044;-74
2023/08/29 09:54:16;;;;;;;1.48;1.02;;;;;;;;;;5017341;28;20051;-74
2023/08/29 09:56:43;;;;;;;3.38;1.10;;;;;;;;;;5038002;28;20106;-73
2023/08/29 09:59:13;;;;;;;1.27;1.10;;;;;;;;;;5016111;28;20048;-74
2023/08/29 10:01:42;;;;;;;4.38;1.00;;;;;;;;;;5038106;28;20039;-74
2023/08/29 10:04:11;;;;;;;2.63;1.05;;;;;;;;;;5016300;28;20033;-73
2023/08/29 10:06:38;;;;;;;1.17;1.05;;;;;;;;;;5014545;28;20421;-74
2023/08/29 10:09:05;;;;;;;2.38;1.10;;;;;;;;;;5033842;28;20037;-74
2023/08/29 10:11:31;;;;;;;2.28;1.10;;;;;;;;;;5014817;28;20136;-74
2023/08/29 10:13:59;;;;;;;1.60;1.00;;;;;;;;;;5014758;28;20489;-75
2023/08/29 10:16:26;;;;;;;1.85;0.95;;;;;;;;;;5013755;28;20040;-74
2023/08/29 10:18:55;;;;;;;6.00;1.20;;;;;;;;;;4997011;28;20262;-74
2023/08/29 10:21:21;;;;;;;4.45;0.98;;;;;;;;;;5031640;28;20449;-74
2023/08/29 10:23:49;;;;;;;2.20;1.25;;;;;;;;;;5029244;28;20124;-74
2023/08/29 10:26:17;;;;;;;3.17;1.00;;;;;;;;;;5009248;28;20086;-74
2023/08/29 10:28:44;;;;;;;1.73;0.90;;;;;;;;;;5011144;28;20049;-74
2023/08/29 10:31:11;;;;;;;2.55;0.90;;;;;;;;;;5027745;28;20072;-75
2023/08/29 10:33:37;;;;;;;0.93;0.80;;;;;;;;;;4992519;28;20041;-74
2023/08/29 10:36:06;;;;;;;1.40;1.30;;;;;;;;;;5028359;28;20390;-74
2023/08/29 10:38:32;;;;;;;2.13;1.08;;;;;;;;;;5026775;28;20211;-74
2023/08/29 10:41:09;;;;;;;1.55;0.90;;;;;;;;;;5035588;28;20052;-74
2023/08/29 10:43:35;;;;;;;1.83;0.80;;;;;;;;;;5016973;28;21680;-74
2023/08/29 10:46:20;;;;;;;2.25;1.23;;;;;;;;;;5011629;28;20132;-74
2023/08/29 10:48:46;;;;;;;7.10;1.08;;;;;;;;;;5014908;28;20090;-74
2023/08/29 10:51:14;;;;;;;1.92;0.98;;;;;;;;;;5000167;28;20040;-74
2023/08/29 10:53:40;;;;;;;3.83;0.98;;;;;;;;;;5016529;28;20394;-76
2023/08/29 10:56:09;;;;;;;2.17;1.13;;;;;;;;;;5017553;28;20069;-74
2023/08/29 10:58:36;;;;;;;1.00;0.70;;;;;;;;;;5017338;28;20091;-74
2023/08/29 11:01:04;;;;;;;4.30;1.17;;;;;;;;;;5012193;28;20048;-72
2023/08/29 11:03:57;;;;;;;0.90;0.90;;;;;;;;;;5016849;28;20071;-72
2023/08/29 11:06:24;;;;;;;3.55;1.20;;;;;;;;;;4990972;28;20044;-71
2023/08/29 11:08:51;;;;;;;1.20;1.10;;;;;;;;;;5018785;28;20579;-68
2023/08/29 11:11:24;;;;;;;2.20;1.08;;;;;;;;;;5022174;28;20053;-72
2023/08/29 11:14:08;;;;;;;3.40;1.30;;;;;;;;;;5038596;28;20120;-72
2023/08/29 11:16:35;;;;;;;3.03;1.50;;;;;;;;;;5020606;28;20183;-71
2023/08/29 11:19:04;;;;;;;1.60;1.30;;;;;;;;;;5020527;28;20037;-72
2023/08/29 11:21:31;;;;;;;1.90;1.42;;;;;;;;;;5020010;28;20492;-72
2023/08/29 11:23:57;;;;;;;1.88;1.50;;;;;;;;;;5015134;28;20060;-71
2023/08/29 11:26:26;;;;;;;3.72;1.30;;;;;;;;;;5038218;28;20123;-72
2023/08/29 11:28:53;;;;;;;4.47;1.55;;;;;;;;;;5039058;28;20094;-71
2023/08/29 11:31:19;;;;;;;2.60;1.52;;;;;;;;;;5020911;28;20044;-72
2023/08/29 11:33:48;;;;;;;2.13;1.40;;;;;;;;;;5021124;28;20175;-72
2023/08/29 11:36:15;;;;;;;4.65;1.40;;;;;;;;;;5038221;28;20497;-72
2023/08/29 11:38:42;;;;;;;3.50;1.60;;;;;;;;;;5037001;28;20534;-71
2023/08/29 11:41:10;;;;;;;1.75;1.33;;;;;;;;;;5037287;28;20131;-72
2023/08/29 11:43:37;;;;;;;5.75;1.92;;;;;;;;;;5020605;28;20124;-72
2023/08/29 11:46:05;;;;;;;2.20;1.48;;;;;;;;;;5021622;28;20036;-71
2023/08/29 11:48:32;;;;;;;2.63;1.30;;;;;;;;;;5004919;28;20128;-72
2023/08/29 11:51:03;;;;;;;2.10;1.50;;;;;;;;;;5028410;28;20049;-71
2023/08/29 11:53:34;;;;;;;1.73;1.50;;;;;;;;;;5039535;28;20072;-71
2023/08/29 11:56:01;;;;;;;1.88;1.45;;;;;;;;;;5039507;28;20124;-71
2023/08/29 11:58:28;;;;;;;3.92;1.38;;;;;;;;;;5021491;28;20048;-71
2023/08/29 12:00:54;;;;;;;2.83;1.40;;;;;;;;;;5025420;28;20527;-71
2023/08/29 12:03:21;;;;;;;1.73;1.13;;;;;;;;;;5008103;28;20071;-71
2023/08/29 12:05:49;;;;;;;7.30;2.05;;;;;;;;;;5040688;28;20044;-71
2023/08/29 12:08:15;;;;;;;3.55;1.83;;;;;;;;;;5020870;28;20052;-71
2023/08/29 12:10:52;;;;;;;1.77;1.67;;;;;;;;;;5022511;28;20200;-71
2023/08/29 12:13:18;;;;;;;2.90;1.52;;;;;;;;;;5021399;28;20492;-75
2023/08/29 12:15:44;;;;;;;4.43;1.77;;;;;;;;;;5022140;28;20131;-82
2023/08/29 12:18:20;;;;;;;2.22;1.88;;;;;;;;;;5022898;28;20037;-72
2023/08/29 12:20:46;;;;;;;12.38;3.17;;;;;;;;;;5039086;28;20044;-72
2023/08/29 12:23:12;;;;;;;2.47;2.00;;;;;;;;;;5017004;28;20481;-71
2023/08/29 12:25:38;;;;;;;2.47;1.90;;;;;;;;;;5038118;28;20080;-71
2023/08/29 12:28:05;;;;;;;2.67;2.03;;;;;;;;;;5018395;28;20052;-72
2023/08/29 12:30:31;;;;;;;2.67;2.15;;;;;;;;;;5038290;28;20044;-71
2023/08/29 12:32:57;;;;;;;3.95;2.30;;;;;;;;;;5020751;28;20071;-71
2023/08/29 12:35:23;;;;;;;2.08;1.55;;;;;;;;;;5019365;28;20037;-71
2023/08/29 12:37:49;;;;;;;1.52;1.42;;;;;;;;;;5017995;28;20040;-71
2023/08/29 12:40:15;;;;;;;1.77;1.67;;;;;;;;;;5014338;28;20048;-72
2023/08/29 12:42:43;;;;;;;3.17;1.88;;;;;;;;;;5037302;28;20406;-76
2023/08/29 12:45:10;;;;;;;2.17;1.70;;;;;;;;;;5020681;28;21426;-76
2023/08/29 12:47:39;;;;;;;2.08;1.60;;;;;;;;;;5017693;28;20493;-76
2023/08/29 12:50:05;;;;;;;3.60;1.77;;;;;;;;;;5018937;28;20090;-77
2023/08/29 12:52:31;;;;;;;2.17;1.65;;;;;;;;;;5017352;28;20414;-77
2023/08/29 12:54:57;;;;;;;2.38;1.50;;;;;;;;;;5005026;28;20052;-78
2023/08/29 12:57:23;;;;;;;1.95;1.45;;;;;;;;;;5016492;28;20048;-78
2023/08/29 12:59:49;;;;;;;3.10;1.65;;;;;;;;;;5037289;28;20039;-77
2023/08/29 13:02:16;;;;;;;2.42;1.75;;;;;;;;;;5036759;28;20098;-78
2023/08/29 13:04:42;;;;;;;3.92;1.40;;;;;;;;;;5001261;28;20069;-78
2023/08/29 13:07:08;;;;;;;3.38;1.42;;;;;;;;;;5016717;28;20041;-78
2023/08/29 13:09:34;;;;;;;4.07;1.42;;;;;;;;;;5033176;28;20041;-77
2023/08/29 13:12:00;;;;;;;2.65;1.58;;;;;;;;;;5035042;28;20132;-77
2023/08/29 13:14:28;;;;;;;2.67;1.60;;;;;;;;;;4985941;28;20063;-78
2023/08/29 13:16:54;;;;;;;3.17;1.35;;;;;;;;;;5020436;28;20048;-78
2023/08/29 13:19:20;;;;;;;2.47;1.52;;;;;;;;;;5034579;28;20032;-78
2023/08/29 13:21:47;;;;;;;2.38;1.30;;;;;;;;;;5017427;28;20190;-77
2023/08/29 13:24:13;;;;;;;2.20;1.30;;;;;;;;;;5031168;28;20144;-78
2023/08/29 13:26:39;;;;;;;3.15;1.33;;;;;;;;;;5001848;28;20048;-77
2023/08/29 13:29:05;;;;;;;1.98;1.33;;;;;;;;;;5017735;28;20044;-77
2023/08/29 13:31:31;;;;;;;3.67;1.35;;;;;;;;;;5013484;28;20041;-76
2023/08/29 13:33:57;;;;;;;2.28;1.30;;;;;;;;;;5033286;28;21149;-76
2023/08/29 13:36:23;;;;;;;2.92;1.45;;;;;;;;;;5031151;28;20136;-76
2023/08/29 13:38:49;;;;;;;1.48;1.20;;;;;;;;;;5031046;28;20067;-76
2023/08/29 13:41:15;;;;;;;2.30;1.25;;;;;;;;;;5015403;28;20495;-76
2023/08/29 13:43:41;;;;;;;3.95;1.70;;;;;;;;;;5016153;28;20041;-76
2023/08/29 13:46:07;;;;;;;2.33;1.50;;;;;;;;;;5016128;28;20049;-76
2023/08/29 13:48:34;;;;;;;2.28;1.40;;;;;;;;;;5016202;28;20049;-76
2023/08/29 13:51:00;;;;;;;4.03;1.65;;;;;;;;;;5014406;28;20964;-76
2023/08/29 13:53:26;;;;;;;3.15;1.50;;;;;;;;;;4999754;28;20049;-77
2023/08/29 13:55:52;;;;;;;2.90;1.30;;;;;;;;;;5014827;28;20734;-76
2023/08/29 13:58:19;;;;;;;1.85;1.27;;;;;;;;;;5012874;28;20044;-77
2023/08/29 14:00:47;;;;;;;1.65;1.20;;;;;;;;;;5013742;28;20156;-77
2023/08/29 14:03:13;;;;;;;2.25;1.40;;;;;;;;;;5017645;28;20044;-77
2023/08/29 14:05:39;;;;;;;3.67;1.20;;;;;;;;;;5038597;28;20041;-77
2023/08/29 14:08:05;;;;;;;2.45;1.50;;;;;;;;;;5021746;28;20064;-77
2023/08/29 14:10:32;;;;;;;5.28;1.55;;;;;;;;;;5036091;28;20045;-76
2023/08/29 14:12:58;;;;;;;4.93;1.52;;;;;;;;;;5025819;28;20040;-76
2023/08/29 14:15:26;;;;;;;1.90;1.20;;;;;;;;;;5037529;28;20076;-76
2023/08/29 14:17:52;;;;;;;2.42;1.70;;;;;;;;;;5040976;28;20041;-77
2023/08/29 14:20:18;;;;;;;2.30;1.55;;;;;;;;;;5020707;28;20073;-77
2023/08/29 14:22:44;;;;;;;2.42;1.42;;;;;;;;;;5020395;28;20044;-76
2023/08/29 14:25:10;;;;;;;2.63;1.58;;;;;;;;;;5036576;28;20059;-76
2023/08/29 14:27:37;;;;;;;2.22;1.33;;;;;;;;;;5019900;28;20053;-77
2023/08/29 14:30:03;;;;;;;1.83;1.40;;;;;;;;;;5020540;28;20053;-77
2023/08/29 14:32:29;;;;;;;4.82;1.70;;;;;;;;;;5032615;28;20045;-78
2023/08/29 14:34:55;;;;;;;4.60;1.60;;;;;;;;;;5035671;28;20048;-76
2023/08/29 14:37:22;;;;;;;1.60;1.00;;;;;;;;;;5016488;28;20131;-78
2023/08/29 14:39:49;;;;;;;2.25;1.42;;;;;;;;;;5016124;28;20048;-78
2023/08/29 14:42:15;;;;;;;4.28;1.50;;;;;;;;;;5038175;28;20079;-77